Time;durP1;ratioP1;P1;durP2;ratioP2;P2;SDS_P1;SDS_P2;PMS_P1;PMS_P2;Temp;Humidity;BMP_temperature;BMP_pressure;BME280_temperature;BME280_humidity;BME280_pressure;Samples;Min_cycle;Max_cycle;Signal;HPM_P1;HPM_P2
2023/12/24 00:00:39;;;;;;;14.05;8.18;;;;;;;-144.73;100.00;54682.75;5029074;28;20018;-80
2023/12/24 00:03:04;;;;;;;18.10;8.60;;;;;;;-144.73;100.00;54732.00;5026651;28;20393;-80
2023/12/24 00:05:30;;;;;;;11.55;6.78;;;;;;;-144.73;100.00;54732.00;5039445;28;20068;-80
2023/12/24 00:07:55;;;;;;;20.55;9.73;;;;;;;-144.73;100.00;54727.91;5041696;28;20040;-79
2023/12/24 00:10:21;;;;;;;19.52;9.23;;;;;;;-144.73;100.00;54744.31;5019288;28;20512;-80
2023/12/24 00:12:47;;;;;;;18.95;9.13;;;;;;;-144.73;100.00;54715.59;5033349;28;20034;-80
2023/12/24 00:15:12;;;;;;;34.30;9.52;;;;;;;-144.73;100.00;54748.44;5033361;28;20029;-79
2023/12/24 00:17:37;;;;;;;13.90;8.63;;;;;;;-144.73;100.00;54715.59;5020516;28;20231;-79
2023/12/24 00:20:03;;;;;;;17.75;8.48;;;;;;;-144.73;100.00;54715.59;5045672;28;20033;-80
2023/12/24 00:22:29;;;;;;;16.60;8.05;;;;;;;-144.73;100.00;54703.28;5043920;28;20040;-79
2023/12/24 00:24:55;;;;;;;22.25;10.55;;;;;;;-144.73;100.00;54709.44;5024826;28;20116;-79
2023/12/24 00:27:20;;;;;;;22.60;10.70;;;;;;;-144.73;100.00;54756.66;5044735;28;20030;-80
2023/12/24 00:29:46;;;;;;;16.23;8.70;;;;;;;-144.73;100.00;54682.75;5020402;28;20030;-78
2023/12/24 00:32:11;;;;;;;15.93;7.68;;;;;;;-144.73;100.00;54715.59;5018171;28;20060;-78
2023/12/24 00:34:37;;;;;;;17.20;8.93;;;;;;;-144.73;100.00;54707.38;5034854;28;20038;-79
2023/12/24 00:37:02;;;;;;;15.25;9.07;;;;;;;-144.73;100.00;54711.47;5026359;28;20045;-81
2023/12/24 00:39:28;;;;;;;20.85;8.80;;;;;;;-144.73;100.00;54719.69;5025590;28;20288;-81
2023/12/24 00:41:53;;;;;;;11.65;7.28;;;;;;;-144.73;100.00;54740.22;5044068;28;20033;-81
2023/12/24 00:44:18;;;;;;;15.30;7.40;;;;;;;-144.73;100.00;54678.63;5025777;28;20025;-81
2023/12/24 00:46:44;;;;;;;13.05;6.55;;;;;;;-144.73;100.00;54711.47;5048771;28;20030;-81
2023/12/24 00:49:10;;;;;;;15.80;8.70;;;;;;;-144.73;100.00;54715.59;5029349;28;20045;-81
2023/12/24 00:51:43;;;;;;;23.33;9.75;;;;;;;-144.73;100.00;54727.91;5025426;28;20068;-82
2023/12/24 00:54:10;;;;;;;19.50;8.85;;;;;;;-144.73;100.00;54705.31;5049325;28;20104;-80
2023/12/24 00:56:35;;;;;;;9.63;4.40;;;;;;;-144.73;100.00;54727.91;5026300;28;20030;-80
2023/12/24 00:59:01;;;;;;;14.63;7.35;;;;;;;-144.73;100.00;54711.47;5014233;28;20025;-80
2023/12/24 01:01:29;;;;;;;9.95;6.50;;;;;;;-144.73;100.00;54752.53;5034576;28;20057;-81
2023/12/24 01:03:54;;;;;;;12.15;6.97;;;;;;;-144.73;100.00;54717.66;5026991;28;20029;-80
2023/12/24 01:06:20;;;;;;;18.55;7.88;;;;;;;-144.73;100.00;54662.22;5016262;28;20026;-81
2023/12/24 01:08:45;;;;;;;16.00;8.70;;;;;;;-144.73;100.00;54699.16;5023126;28;20054;-81
2023/12/24 01:11:12;;;;;;;15.77;7.03;;;;;;;-144.73;100.00;54717.66;5002394;28;20031;-79
2023/12/24 01:13:38;;;;;;;14.77;8.00;;;;;;;-144.73;100.00;54723.81;5007629;28;20034;-80
2023/12/24 01:16:04;;;;;;;18.30;9.63;;;;;;;-144.73;100.00;54748.44;5003572;28;20033;-80
2023/12/24 01:18:30;;;;;;;13.82;8.20;;;;;;;-144.73;100.00;54715.59;5039429;28;20048;-80
2023/12/24 01:20:56;;;;;;;15.63;8.75;;;;;;;-144.73;100.00;54715.59;5022251;28;20049;-80
2023/12/24 01:23:23;;;;;;;21.20;10.20;;;;;;;-144.73;100.00;54703.28;5020280;28;20121;-80
2023/12/24 01:25:48;;;;;;;22.35;10.95;;;;;;;-144.73;100.00;54740.22;5019089;28;20032;-81
2023/12/24 01:28:14;;;;;;;23.52;10.95;;;;;;;-144.73;100.00;54707.38;5017710;28;20105;-81
2023/12/24 01:30:43;;;;;;;21.70;10.52;;;;;;;-144.73;100.00;54719.69;5001095;28;20077;-81
2023/12/24 01:33:08;;;;;;;15.63;9.02;;;;;;;-144.73;100.00;54736.13;5006901;28;20042;-81
2023/12/24 01:35:43;;;;;;;13.57;8.38;;;;;;;-144.73;100.00;54699.16;5028949;28;20022;-81
2023/12/24 01:38:09;;;;;;;21.00;10.52;;;;;;;-144.73;100.00;54727.91;5032189;28;20034;-81
2023/12/24 01:40:34;;;;;;;14.00;8.30;;;;;;;-144.73;100.00;54695.06;5036952;28;20018;-82
2023/12/24 01:43:01;;;;;;;26.52;11.60;;;;;;;-144.73;100.00;54719.69;5036677;28;20120;-81
2023/12/24 01:45:27;;;;;;;18.50;10.00;;;;;;;-144.73;100.00;54764.84;5020020;28;20053;-83
2023/12/24 01:47:52;;;;;;;16.00;9.60;;;;;;;-144.73;100.00;54678.63;5025795;28;20031;-81
2023/12/24 01:50:19;;;;;;;19.58;9.88;;;;;;;-144.73;100.00;54707.38;5045973;28;20130;-82
2023/12/24 01:52:45;;;;;;;14.85;8.65;;;;;;;-144.73;100.00;54707.38;5030814;28;20025;-82
2023/12/24 01:55:11;;;;;;;21.10;10.43;;;;;;;-144.73;100.00;54715.59;5039155;28;20021;-81
2023/12/24 01:57:36;;;;;;;20.90;11.10;;;;;;;-144.73;100.00;54715.59;5027698;28;20103;-81
2023/12/24 02:00:02;;;;;;;18.13;9.80;;;;;;;-144.73;100.00;54711.47;5038502;28;20131;-81
2023/12/24 02:02:28;;;;;;;24.27;11.95;;;;;;;-144.73;100.00;54703.28;5019665;28;20037;-82
2023/12/24 02:04:54;;;;;;;27.00;12.07;;;;;;;-144.73;100.00;54713.53;5024081;28;20045;-81
2023/12/24 02:07:24;;;;;;;32.08;13.18;;;;;;;-144.73;100.00;54727.91;5015861;28;20030;-80
2023/12/24 02:09:49;;;;;;;26.27;9.52;;;;;;;-144.73;100.00;54727.91;5030226;28;20036;-80
2023/12/24 02:12:15;;;;;;;40.08;15.95;;;;;;;-144.73;100.00;54703.28;5031569;28;20102;-80
2023/12/24 02:14:40;;;;;;;26.48;11.18;;;;;;;-144.73;100.00;54723.81;5019970;28;20064;-80
2023/12/24 02:17:06;;;;;;;28.88;12.43;;;;;;;-144.73;100.00;54752.53;5013525;28;20065;-78
2023/12/24 02:19:32;;;;;;;49.55;14.63;;;;;;;-144.73;100.00;54719.69;5012286;28;20014;-78
2023/12/24 02:21:57;;;;;;;35.40;10.85;;;;;;;-144.73;100.00;54711.47;5013522;28;20088;-79
2023/12/24 02:24:23;;;;;;;28.35;13.70;;;;;;;-144.73;100.00;54707.38;5028129;28;20030;-79
2023/12/24 02:27:33;;;;;;;29.20;13.63;;;;;;;-144.73;100.00;54723.81;5026519;28;20037;-79
2023/12/24 02:30:10;;;;;;;41.28;17.58;;;;;;;-144.73;100.00;54752.53;5013036;28;20051;-79
2023/12/24 02:32:37;;;;;;;29.00;14.68;;;;;;;-144.73;100.00;54744.31;5032511;28;20065;-79
2023/12/24 02:35:04;;;;;;;24.90;13.32;;;;;;;-144.73;100.00;54736.13;5020056;28;20022;-78
2023/12/24 02:37:31;;;;;;;28.42;13.25;;;;;;;-144.73;100.00;54736.13;5022328;28;20056;-78
2023/12/24 02:39:56;;;;;;;20.25;10.60;;;;;;;-144.73;100.00;54703.28;5038718;28;20017;-79
2023/12/24 02:42:22;;;;;;;15.05;8.13;;;;;;;-144.73;100.00;54719.69;5029991;28;20032;-79
2023/12/24 02:44:47;;;;;;;8.63;4.93;;;;;;;-144.73;100.00;54736.13;5037460;28;20100;-79
2023/12/24 02:47:13;;;;;;;5.70;3.50;;;;;;;-144.73;100.00;54771.00;5018571;28;20103;-79
2023/12/24 02:49:38;;;;;;;2.63;1.80;;;;;;;-144.73;100.00;54781.28;5010545;28;20077;-78
2023/12/24 02:52:04;;;;;;;1.25;0.80;;;;;;;-144.73;100.00;54711.47;5016124;28;20040;-83
2023/12/24 02:54:29;;;;;;;0.73;0.73;;;;;;;-144.73;100.00;54686.84;5014636;28;20030;-78
2023/12/24 02:56:55;;;;;;;1.02;0.52;;;;;;;-144.73;100.00;54727.91;5028750;28;20029;-78
2023/12/24 02:59:20;;;;;;;0.70;0.60;;;;;;;-144.73;100.00;54748.44;5031451;28;20036;-80
2023/12/24 03:01:46;;;;;;;2.20;0.73;;;;;;;-144.73;100.00;54752.53;5012304;28;20037;-78
2023/12/24 03:04:11;;;;;;;1.15;0.63;;;;;;;-144.73;100.00;54754.59;5027109;28;20084;-79
2023/12/24 03:06:36;;;;;;;1.05;0.52;;;;;;;-144.73;100.00;54740.22;5026556;28;20030;-79
2023/12/24 03:09:02;;;;;;;0.68;0.68;;;;;;;-144.73;100.00;54703.28;5030643;28;20098;-79
2023/12/24 03:11:28;;;;;;;0.95;0.70;;;;;;;-144.73;100.00;54764.84;5013112;28;20034;-80
2023/12/24 03:13:53;;;;;;;1.98;0.70;;;;;;;-144.73;100.00;54740.22;5032065;28;20096;-79
2023/12/24 03:16:18;;;;;;;1.85;0.70;;;;;;;-144.73;100.00;54748.44;5014624;28;20025;-79
2023/12/24 03:18:44;;;;;;;1.27;0.70;;;;;;;-144.73;100.00;54740.22;5020250;28;20080;-79
2023/12/24 03:21:10;;;;;;;0.60;0.50;;;;;;;-144.73;100.00;54719.69;5011145;28;20419;-79
2023/12/24 03:23:35;;;;;;;0.70;0.70;;;;;;;-144.73;100.00;54752.53;5032273;28;20028;-78
2023/12/24 03:26:00;;;;;;;1.85;1.23;;;;;;;-144.73;100.00;54752.53;5035670;28;20022;-78
2023/12/24 03:28:26;;;;;;;1.17;0.60;;;;;;;-144.73;100.00;54744.31;5031451;28;20030;-78
2023/12/24 03:30:51;;;;;;;1.02;0.60;;;;;;;-144.73;100.00;54736.13;5031942;28;20030;-79
2023/12/24 03:33:16;;;;;;;1.02;0.88;;;;;;;-144.73;100.00;54723.81;5022775;28;20109;-80
2023/12/24 03:35:43;;;;;;;2.13;1.10;;;;;;;-144.73;100.00;54715.59;5012361;28;20074;-79
2023/12/24 03:38:08;;;;;;;1.23;0.82;;;;;;;-144.73;100.00;54789.50;5032599;28;20072;-80
2023/12/24 03:40:34;;;;;;;0.95;0.77;;;;;;;-144.73;100.00;54732.00;5018031;28;20029;-79
2023/12/24 03:42:59;;;;;;;1.10;0.98;;;;;;;-144.73;100.00;54727.91;5037978;28;20560;-79
2023/12/24 03:45:25;;;;;;;1.25;0.80;;;;;;;-144.73;100.00;54703.28;5018444;28;20041;-80
2023/12/24 03:47:50;;;;;;;2.08;1.10;;;;;;;-144.73;100.00;54711.47;5032589;28;20034;-80
2023/12/24 03:50:15;;;;;;;2.10;1.00;;;;;;;-144.73;100.00;54752.53;5017716;28;20022;-80
2023/12/24 03:52:41;;;;;;;1.75;1.10;;;;;;;-144.73;100.00;54740.22;5030182;28;20038;-79
2023/12/24 03:55:06;;;;;;;2.10;0.80;;;;;;;-144.73;100.00;54736.13;5029560;28;20026;-80
2023/12/24 03:57:32;;;;;;;1.58;1.17;;;;;;;-144.73;100.00;54736.13;5027926;28;20037;-80
2023/12/24 03:59:57;;;;;;;1.63;1.20;;;;;;;-144.73;100.00;54764.84;5034325;28;20022;-78
2023/12/24 04:02:24;;;;;;;1.90;1.00;;;;;;;-144.73;100.00;54723.81;5041641;28;21008;-79
2023/12/24 04:04:50;;;;;;;1.17;1.00;;;;;;;-144.73;100.00;54719.69;5028071;28;20365;-80
2023/12/24 04:07:16;;;;;;;1.63;1.10;;;;;;;-144.73;100.00;54777.16;5022999;28;20033;-78
2023/12/24 04:09:42;;;;;;;1.42;1.20;;;;;;;-144.73;100.00;54750.50;5019270;28;20018;-79
2023/12/24 04:12:08;;;;;;;2.97;1.23;;;;;;;-144.73;100.00;54719.69;5041089;28;20036;-81
2023/12/24 04:14:38;;;;;;;1.35;1.17;;;;;;;-144.73;100.00;54779.22;5034332;28;20544;-80
2023/12/24 04:17:05;;;;;;;3.35;1.42;;;;;;;-144.73;100.00;54744.31;5038886;28;20045;-81
2023/12/24 04:19:30;;;;;;;2.58;1.50;;;;;;;-144.73;100.00;54756.66;5046344;28;20022;-81
2023/12/24 04:21:56;;;;;;;2.58;1.40;;;;;;;-144.73;100.00;54785.38;5023060;28;20088;-80
2023/12/24 04:24:21;;;;;;;1.63;1.33;;;;;;;-144.73;100.00;54719.69;5030941;28;20037;-80
2023/12/24 04:26:46;;;;;;;1.70;1.27;;;;;;;-144.73;100.00;54738.16;5045042;28;20026;-79
2023/12/24 04:29:12;;;;;;;3.40;1.20;;;;;;;-144.73;100.00;54760.75;5024460;28;20021;-79
2023/12/24 04:31:39;;;;;;;1.40;1.10;;;;;;;-144.73;100.00;54725.84;5021753;28;20045;-79
2023/12/24 04:34:06;;;;;;;1.92;1.40;;;;;;;-144.73;100.00;54717.66;5020823;28;20026;-79
2023/12/24 04:36:35;;;;;;;2.30;1.30;;;;;;;-144.73;100.00;54740.22;5023584;28;20094;-79
2023/12/24 04:39:01;;;;;;;2.92;1.67;;;;;;;-144.73;100.00;54752.53;5019586;28;20025;-79
2023/12/24 04:41:28;;;;;;;2.63;1.40;;;;;;;-144.73;100.00;54732.00;5024707;28;20044;-78
2023/12/24 04:43:57;;;;;;;4.05;1.70;;;;;;;-144.73;100.00;54715.59;5038430;28;20045;-81
2023/12/24 04:46:22;;;;;;;2.30;1.35;;;;;;;-144.73;100.00;54723.81;5029915;28;20053;-79
2023/12/24 04:48:48;;;;;;;3.47;1.60;;;;;;;-144.73;100.00;54707.38;5044982;28;20020;-82
2023/12/24 04:51:14;;;;;;;3.90;1.40;;;;;;;-144.73;100.00;54746.38;5026275;28;20018;-82
2023/12/24 04:53:41;;;;;;;3.08;1.42;;;;;;;-144.73;100.00;54723.81;5040798;28;20018;-82
2023/12/24 04:56:06;;;;;;;1.35;1.20;;;;;;;-144.73;100.00;54746.38;5052383;28;20025;-82
2023/12/24 04:58:31;;;;;;;1.98;1.25;;;;;;;-144.73;100.00;54717.66;5032996;28;20117;-81
2023/12/24 05:00:57;;;;;;;1.90;1.50;;;;;;;-144.73;100.00;54719.69;5043166;28;20017;-78
2023/12/24 05:03:23;;;;;;;2.33;1.30;;;;;;;-144.73;100.00;54748.44;5030780;28;20112;-82
2023/12/24 05:05:48;;;;;;;1.30;1.20;;;;;;;-144.73;100.00;54744.31;5034629;28;20017;-81
2023/12/24 05:08:14;;;;;;;1.58;1.33;;;;;;;-144.73;100.00;54736.13;5037467;28;20033;-79
2023/12/24 05:10:39;;;;;;;2.75;1.40;;;;;;;-144.73;100.00;54729.97;5025570;28;20021;-80
2023/12/24 05:13:06;;;;;;;2.80;1.60;;;;;;;-144.73;100.00;54740.22;5039707;28;20033;-80
2023/12/24 05:15:31;;;;;;;1.27;1.10;;;;;;;-144.73;100.00;54748.44;5024463;28;20109;-83
2023/12/24 05:17:57;;;;;;;3.30;1.20;;;;;;;-144.73;100.00;54736.13;5022733;28;20041;-80
2023/12/24 05:20:22;;;;;;;1.58;1.25;;;;;;;-144.73;100.00;54732.00;5029878;28;20017;-82
2023/12/24 05:22:48;;;;;;;3.58;1.70;;;;;;;-144.73;100.00;54732.00;5053553;28;20095;-79
2023/12/24 05:25:13;;;;;;;1.92;1.27;;;;;;;-144.73;100.00;54744.31;5025693;28;20026;-80
2023/12/24 05:27:39;;;;;;;3.20;1.17;;;;;;;-144.73;100.00;54727.91;5053852;28;20038;-82
2023/12/24 05:30:06;;;;;;;3.08;1.67;;;;;;;-144.73;100.00;54721.75;5026209;28;20032;-81
2023/12/24 05:32:32;;;;;;;2.17;1.40;;;;;;;-144.73;100.00;54764.84;5037418;28;20036;-81
2023/12/24 05:34:57;;;;;;;1.27;1.13;;;;;;;-144.73;100.00;54723.81;5030670;28;20014;-79
2023/12/24 05:37:22;;;;;;;2.20;1.80;;;;;;;-144.73;100.00;54732.00;5026953;28;20030;-83
2023/12/24 05:39:48;;;;;;;2.55;1.40;;;;;;;-144.73;100.00;54736.13;5039999;28;20049;-80
2023/12/24 05:42:14;;;;;;;2.75;1.45;;;;;;;-144.73;100.00;54727.91;5040704;28;20033;-78
2023/12/24 05:44:39;;;;;;;3.53;1.50;;;;;;;-144.73;100.00;54760.75;5034472;28;20026;-82
2023/12/24 05:47:05;;;;;;;2.05;1.33;;;;;;;-144.73;100.00;54736.13;5040555;28;20038;-82
2023/12/24 05:49:31;;;;;;;2.60;1.52;;;;;;;-144.73;100.00;54752.53;5030406;28;20022;-78
2023/12/24 05:51:59;;;;;;;2.85;1.50;;;;;;;-144.73;100.00;54764.84;5055484;28;20511;-78
2023/12/24 05:54:24;;;;;;;1.50;1.40;;;;;;;-144.73;100.00;54707.38;5044841;28;20061;-81
2023/12/24 05:56:50;;;;;;;1.50;1.40;;;;;;;-144.73;100.00;54752.53;5043328;28;20033;-79
2023/12/24 05:59:15;;;;;;;1.35;1.25;;;;;;;-144.73;100.00;54752.53;5040727;28;20045;-82
2023/12/24 06:01:42;;;;;;;2.55;1.50;;;;;;;-144.73;100.00;54750.50;5040125;28;20030;-83
2023/12/24 06:04:08;;;;;;;1.55;1.40;;;;;;;-144.73;100.00;54752.53;5023791;28;20022;-82
2023/12/24 06:06:39;;;;;;;1.40;1.20;;;;;;;-144.73;100.00;54748.44;5041213;28;20154;-83
2023/12/24 06:09:04;;;;;;;1.67;1.13;;;;;;;-144.73;100.00;54748.44;5041710;28;20026;-82
2023/12/24 06:11:30;;;;;;;1.67;1.20;;;;;;;-144.73;100.00;54740.22;5030126;28;20089;-82
2023/12/24 06:13:55;;;;;;;2.25;1.20;;;;;;;-144.73;100.00;54789.50;5036918;28;20033;-79
2023/12/24 06:16:21;;;;;;;1.40;1.30;;;;;;;-144.73;100.00;54748.44;5038798;28;20052;-82
2023/12/24 06:18:46;;;;;;;1.85;1.05;;;;;;;-144.73;100.00;54727.91;5046209;28;20436;-81
2023/12/24 06:21:12;;;;;;;1.05;0.95;;;;;;;-144.73;100.00;54760.75;5033469;28;20025;-79
2023/12/24 06:23:37;;;;;;;1.38;1.25;;;;;;;-144.73;100.00;54719.69;5040656;28;20018;-78
2023/12/24 06:26:04;;;;;;;1.35;1.10;;;;;;;-144.73;100.00;54727.91;5043041;28;20086;-78
2023/12/24 06:28:29;;;;;;;1.38;1.10;;;;;;;-144.73;100.00;54740.22;5053503;28;20025;-80
2023/12/24 06:30:55;;;;;;;1.23;1.13;;;;;;;-144.73;100.00;54721.75;5020343;28;20118;-81
2023/12/24 06:33:21;;;;;;;1.20;1.10;;;;;;;-144.73;100.00;54752.53;5045704;28;20038;-81
2023/12/24 06:35:46;;;;;;;2.05;1.10;;;;;;;-144.73;100.00;54736.13;5049887;28;20037;-79
2023/12/24 06:38:11;;;;;;;1.30;1.20;;;;;;;-144.73;100.00;54723.81;5047369;28;20037;-81
2023/12/24 06:40:37;;;;;;;0.90;0.90;;;;;;;-144.73;100.00;54740.22;5038286;28;20467;-79
2023/12/24 06:43:02;;;;;;;2.10;1.13;;;;;;;-144.73;100.00;54760.75;5039244;28;20045;-83
2023/12/24 06:45:28;;;;;;;1.10;1.08;;;;;;;-144.73;100.00;54727.91;5018600;28;20100;-81
2023/12/24 06:47:53;;;;;;;1.38;1.27;;;;;;;-144.73;100.00;54752.53;5019226;28;20029;-81
2023/12/24 06:50:20;;;;;;;1.33;1.23;;;;;;;-144.73;100.00;54723.81;5023886;28;20022;-81
2023/12/24 06:52:45;;;;;;;3.70;1.08;;;;;;;-144.73;100.00;54719.69;5033099;28;20034;-80
2023/12/24 06:55:12;;;;;;;1.15;1.08;;;;;;;-144.73;100.00;54760.75;5042497;28;20097;-80
2023/12/24 06:57:40;;;;;;;1.63;1.35;;;;;;;-144.73;100.00;54727.91;5046781;28;20069;-80
2023/12/24 07:00:06;;;;;;;1.77;1.35;;;;;;;-144.73;100.00;54723.81;5057504;28;20026;-81
2023/12/24 07:02:32;;;;;;;2.72;1.30;;;;;;;-144.73;100.00;54773.06;5028635;28;20033;-81
2023/12/24 07:04:57;;;;;;;1.45;1.35;;;;;;;-144.73;100.00;54766.91;5043974;28;20018;-79
2023/12/24 07:07:23;;;;;;;1.98;1.50;;;;;;;-144.73;100.00;54744.31;5026530;28;20041;-79
2023/12/24 07:09:48;;;;;;;2.17;1.40;;;;;;;-144.73;100.00;54744.31;5027120;28;20022;-78
2023/12/24 07:12:13;;;;;;;1.80;1.70;;;;;;;-144.73;100.00;54723.81;5022334;28;20037;-78
2023/12/24 07:14:39;;;;;;;2.47;1.50;;;;;;;-144.73;100.00;54736.13;5041064;28;20102;-80
2023/12/24 07:17:04;;;;;;;2.80;1.50;;;;;;;-144.73;100.00;54715.59;5025871;28;20045;-81
2023/12/24 07:19:30;;;;;;;1.65;1.55;;;;;;;-144.73;100.00;54748.44;5038932;28;20049;-81
2023/12/24 07:21:55;;;;;;;2.10;1.90;;;;;;;-144.73;100.00;54719.69;5025025;28;20049;-82
2023/12/24 07:24:21;;;;;;;1.70;1.60;;;;;;;-144.73;100.00;54740.22;5024124;28;20033;-82
2023/12/24 07:26:46;;;;;;;3.55;2.28;;;;;;;-144.73;100.00;54756.66;5038329;28;20037;-81
2023/12/24 07:29:12;;;;;;;1.80;1.70;;;;;;;-144.73;100.00;54768.97;5043187;28;20106;-79
2023/12/24 07:31:38;;;;;;;1.90;1.80;;;;;;;-144.73;100.00;54766.91;5047808;28;20072;-79
2023/12/24 07:34:03;;;;;;;2.17;1.98;;;;;;;-144.73;100.00;54703.28;5032720;28;20030;-82
2023/12/24 07:36:29;;;;;;;3.47;2.38;;;;;;;-144.73;100.00;54748.44;5047768;28;20037;-81
2023/12/24 07:38:54;;;;;;;2.80;1.85;;;;;;;-144.73;100.00;54719.69;5027239;28;20022;-81
2023/12/24 07:41:20;;;;;;;2.40;2.17;;;;;;;-144.73;100.00;54748.44;5026796;28;20025;-82
2023/12/24 07:43:45;;;;;;;5.05;3.50;;;;;;;-144.73;100.00;54729.97;5049337;28;20014;-79
2023/12/24 07:46:11;;;;;;;3.30;2.42;;;;;;;-144.73;100.00;54791.53;5029633;28;20024;-78
2023/12/24 07:48:36;;;;;;;3.80;2.40;;;;;;;-144.73;100.00;54719.69;5041029;28;20009;-80
2023/12/24 07:51:02;;;;;;;3.50;2.22;;;;;;;-144.73;100.00;54736.13;5024057;28;20497;-81
2023/12/24 07:53:28;;;;;;;2.83;2.00;;;;;;;-144.73;100.00;54736.13;5057795;28;20045;-81
2023/12/24 07:55:53;;;;;;;2.30;2.10;;;;;;;-144.73;100.00;54754.59;5035052;28;20045;-78
2023/12/24 07:58:25;;;;;;;4.13;2.30;;;;;;;-144.73;100.00;54760.75;5030510;28;20042;-80
2023/12/24 08:00:50;;;;;;;4.15;3.05;;;;;;;-144.73;100.00;54744.31;5027806;28;20050;-81
2023/12/24 08:03:16;;;;;;;2.88;2.13;;;;;;;-144.73;100.00;54727.91;5041196;28;20045;-81
2023/12/24 08:05:44;;;;;;;3.63;2.47;;;;;;;-144.73;100.00;54764.84;5041505;28;20018;-82
2023/12/24 08:08:10;;;;;;;3.28;2.75;;;;;;;-144.73;100.00;54736.13;5040063;28;20034;-82
2023/12/24 08:10:36;;;;;;;3.17;2.42;;;;;;;-144.73;100.00;54764.84;5041874;28;20033;-81
2023/12/24 08:13:02;;;;;;;4.35;2.55;;;;;;;-144.73;100.00;54715.59;5044553;28;20049;-79
2023/12/24 08:15:27;;;;;;;4.07;2.95;;;;;;;-144.73;100.00;54725.84;5055655;28;20026;-79
2023/12/24 08:17:52;;;;;;;4.40;2.88;;;;;;;-144.73;100.00;54746.38;5041199;28;20026;-81
2023/12/24 08:20:21;;;;;;;2.63;2.42;;;;;;;-144.73;100.00;54736.13;5030523;28;20043;-83
2023/12/24 08:22:47;;;;;;;2.95;2.50;;;;;;;-144.73;100.00;54760.75;5024740;28;20025;-80
2023/12/24 08:25:15;;;;;;;4.30;2.38;;;;;;;-144.73;100.00;54752.53;5031881;28;20038;-82
2023/12/24 08:27:41;;;;;;;3.05;2.67;;;;;;;-144.73;100.00;54752.53;5051612;28;20064;-79
2023/12/24 08:30:08;;;;;;;2.53;2.20;;;;;;;-144.73;100.00;54732.00;5056510;28;20473;-83
2023/12/24 08:32:33;;;;;;;3.70;2.38;;;;;;;-144.73;100.00;54750.50;5031087;28;20140;-82
2023/12/24 08:34:59;;;;;;;2.92;2.40;;;;;;;-144.73;100.00;54760.75;5032925;28;20053;-79
2023/12/24 08:37:24;;;;;;;2.33;2.13;;;;;;;-144.73;100.00;54781.28;5041842;28;20033;-81
2023/12/24 08:39:50;;;;;;;2.80;2.35;;;;;;;-144.73;100.00;54719.69;5048016;28;20092;-82
2023/12/24 08:42:15;;;;;;;3.63;2.35;;;;;;;-144.73;100.00;54773.06;5048600;28;20037;-80
2023/12/24 08:44:41;;;;;;;2.28;2.08;;;;;;;-144.73;100.00;54740.22;5052919;28;20064;-80
2023/12/24 08:47:06;;;;;;;4.28;2.17;;;;;;;-144.73;100.00;54752.53;5048739;28;20030;-83
2023/12/24 08:49:31;;;;;;;1.60;1.50;;;;;;;-144.73;100.00;54736.13;5051156;28;20026;-81
2023/12/24 08:51:57;;;;;;;2.50;2.10;;;;;;;-144.73;100.00;54740.22;5034239;28;20041;-79
2023/12/24 08:54:24;;;;;;;2.28;2.00;;;;;;;-144.73;100.00;54768.97;5054627;28;20099;-79
2023/12/24 08:56:49;;;;;;;2.10;1.90;;;;;;;-144.73;100.00;54754.59;5048973;28;20503;-81
2023/12/24 08:59:15;;;;;;;2.00;1.80;;;;;;;-144.73;100.00;54762.81;5036456;28;20025;-82
2023/12/24 09:01:41;;;;;;;3.05;2.47;;;;;;;-144.73;100.00;54736.13;5027033;28;20042;-80
2023/12/24 09:04:07;;;;;;;1.75;1.60;;;;;;;-144.73;100.00;54738.16;5052165;28;20026;-82
2023/12/24 09:06:32;;;;;;;2.28;2.08;;;;;;;-144.73;100.00;54810.00;5039927;28;20135;-80
2023/12/24 09:08:57;;;;;;;2.10;1.90;;;;;;;-144.73;100.00;54748.44;5062802;28;20017;-83
2023/12/24 09:11:23;;;;;;;1.88;1.77;;;;;;;-144.73;100.00;54758.69;5047691;28;20101;-81
2023/12/24 09:13:48;;;;;;;2.63;1.88;;;;;;;-144.73;100.00;54734.06;5063159;28;20036;-77
2023/12/24 09:16:13;;;;;;;4.00;1.67;;;;;;;-144.73;100.00;54732.00;5039462;28;20469;-77
2023/12/24 09:18:39;;;;;;;2.65;1.83;;;;;;;-144.73;100.00;54727.91;5022320;28;20040;-77
2023/12/24 09:21:07;;;;;;;1.85;1.75;;;;;;;-144.73;100.00;54775.13;5015315;28;20484;-77
2023/12/24 09:23:32;;;;;;;3.30;1.75;;;;;;;-144.73;100.00;54748.44;5029247;28;20030;-76
2023/12/24 09:25:57;;;;;;;2.67;1.90;;;;;;;-144.73;100.00;54736.13;5012675;28;20084;-76
2023/12/24 09:28:23;;;;;;;2.17;1.90;;;;;;;-144.73;100.00;54760.75;5028337;28;20038;-76
2023/12/24 09:30:49;;;;;;;1.88;1.77;;;;;;;-144.73;100.00;54758.69;5013018;28;20030;-79
2023/12/24 09:33:17;;;;;;;2.55;2.35;;;;;;;-144.73;100.00;54760.75;5021801;28;20064;-76
2023/12/24 09:35:45;;;;;;;4.15;2.53;;;;;;;-144.73;100.00;54756.66;5026653;28;20079;-76
2023/12/24 09:38:11;;;;;;;2.50;2.30;;;;;;;-144.73;100.00;54732.00;5042285;28;20243;-79
2023/12/24 09:40:37;;;;;;;3.55;2.72;;;;;;;-144.73;100.00;54727.91;5041281;28;20044;-77
2023/12/24 09:43:03;;;;;;;2.92;2.45;;;;;;;-144.73;100.00;54723.81;5042556;28;20125;-77
2023/12/24 09:45:32;;;;;;;3.30;2.13;;;;;;;-144.73;100.00;54744.31;5014281;28;20030;-75
2023/12/24 09:47:57;;;;;;;2.00;1.88;;;;;;;-144.73;100.00;54719.69;5032879;28;20033;-76
2023/12/24 09:50:23;;;;;;;1.65;1.55;;;;;;;-144.73;100.00;54748.44;5032784;28;20033;-77
2023/12/24 09:52:51;;;;;;;2.40;2.20;;;;;;;-144.73;100.00;54744.31;5037669;28;20557;-78
2023/12/24 09:55:16;;;;;;;2.35;2.15;;;;;;;-144.73;100.00;54752.53;5036177;28;20025;-77
2023/12/24 09:57:41;;;;;;;3.00;1.90;;;;;;;-144.73;100.00;54742.28;5026080;28;20038;-77
2023/12/24 10:00:10;;;;;;;2.42;2.10;;;;;;;-144.73;100.00;54715.59;5012694;28;20160;-72
2023/12/24 10:02:36;;;;;;;2.30;2.10;;;;;;;-144.73;100.00;54756.66;5012268;28;20413;-70
2023/12/24 10:05:06;;;;;;;3.30;2.22;;;;;;;-144.73;100.00;54736.13;5013662;28;20416;-72
2023/12/24 10:07:38;;;;;;;2.28;1.90;;;;;;;-144.73;100.00;54826.44;5012001;28;20049;-69
2023/12/24 10:10:05;;;;;;;1.80;1.70;;;;;;;-144.73;100.00;54746.38;5012409;28;20037;-72
2023/12/24 10:12:30;;;;;;;1.90;1.75;;;;;;;-144.73;100.00;54768.97;5011931;28;20029;-71
2023/12/24 10:14:58;;;;;;;1.90;1.80;;;;;;;-144.73;100.00;54764.84;5011731;28;20145;-70
2023/12/24 10:17:30;;;;;;;1.95;1.83;;;;;;;-144.73;100.00;54736.13;5011849;28;20041;-72
2023/12/24 10:19:56;;;;;;;2.25;1.60;;;;;;;-144.73;100.00;54719.69;5012200;28;20045;-71
2023/12/24 10:22:26;;;;;;;4.82;1.67;;;;;;;-144.73;100.00;54777.16;5011925;28;20038;-71
2023/12/24 10:25:05;;;;;;;2.00;1.60;;;;;;;-144.73;100.00;54752.53;5012671;28;20049;-70
2023/12/24 10:27:31;;;;;;;2.00;1.80;;;;;;;-144.73;100.00;54748.44;5012166;28;20100;-73
2023/12/24 10:30:12;;;;;;;2.85;2.30;;;;;;;-144.73;100.00;54725.84;5012377;28;20030;-73
2023/12/24 10:32:42;;;;;;;1.70;1.60;;;;;;;-144.73;100.00;54752.53;5011595;28;20037;-73
2023/12/24 10:35:08;;;;;;;3.42;2.17;;;;;;;-144.73;100.00;54744.31;5012472;28;20044;-69
2023/12/24 10:37:33;;;;;;;4.22;1.83;;;;;;;-144.73;100.00;54762.81;5011594;28;20038;-70
2023/12/24 10:40:10;;;;;;;1.77;1.50;;;;;;;-144.73;100.00;54732.00;5012364;28;20022;-71
2023/12/24 10:42:36;;;;;;;2.60;2.40;;;;;;;-144.73;100.00;54760.75;5011917;28;20113;-71
2023/12/24 10:45:06;;;;;;;2.88;2.15;;;;;;;-144.73;100.00;54768.97;5012482;28;20097;-71
2023/12/24 10:47:31;;;;;;;4.35;3.45;;;;;;;-144.73;100.00;54768.97;5012379;28;20057;-73
2023/12/24 10:49:56;;;;;;;2.28;2.08;;;;;;;-144.73;100.00;54758.69;5011996;28;20060;-71
2023/12/24 10:52:22;;;;;;;2.35;2.10;;;;;;;-144.73;100.00;54744.31;5011922;28;20041;-72
2023/12/24 10:54:47;;;;;;;3.63;3.00;;;;;;;-144.73;100.00;54744.31;5013554;28;20032;-71
2023/12/24 10:57:24;;;;;;;3.97;2.53;;;;;;;-144.73;100.00;54752.53;5011114;28;20057;-72
2023/12/24 11:00:04;;;;;;;2.10;1.85;;;;;;;-144.73;100.00;54746.38;5011815;28;20036;-71
2023/12/24 11:02:30;;;;;;;6.78;2.17;;;;;;;-144.73;100.00;54750.50;5012678;28;20045;-71